Aérodrome :
LOGIN :

S'inscrire | Disclaimer

   EN    FR    IT 

 










Légende :    VFR   VFR Marginal   IFR   IFR Intensif   IFR Très Intensif
Visi : 
Plafond : 
>= 8 km
>= 3000ft
5 à 8 km
1000 à 3000 ft
1500m à 5 km
500 à 1000 ft
800 à 1500m
200 à 500 ft
< 800m
< 200 ft
Symboles :   Orages  Brouillard  Fortes neiges  Fortes précipitations  Vent > 20 kt
SIGMETs :   Divers  Orages  Givrage  Turbulence  Onde Orograph.  Cendres Volcan.






- Altitude de l'aérodrome : 319 ft


EIME - Casement Air Base

DERNIER METAR :
  • 221500Z 13007KT 9000 SHRA FEW010 BKN030 06/04 Q0990

METARs EXPIRÉS :
  • 221430Z 14010KT 9000 -SHRA FEW010 SCT015 BKN030 06/05 Q0990
  • 221400Z 12014KT 7000 -SHRAGR FEW010 SCT015 SCT018CB BKN030 06/04 Q0990
  • 221330Z 09007KT 9999 FEW010 FEW018CB BKN030 08/06 Q0989
  • 221300Z 08006KT 9999 -RADZ FEW010 BKN013 08/07 Q0990
  • 221230Z 10006KT 9999 FEW010 SCT015 BKN030 07/06 Q0990

TAF TAF EIME
Valide du 22 à 15h jusqu'au 23 à 00h UTC


221400Z 2215/2224 08010KT 9999 -RA FEW008 BKN018
TEMPO 2215/2224 5000 SHRAGR BKN008 SCT018CB



MET'MAP, la Météo Aéronautique d'un coup d'oeil ! - Copyright ORBIFLY Décembre 2007 - Disclaimer

ORBIFLY MET'MAP TEAM :

Programmation & Développement : Alexandra Zaïnal
Conception & Développement : Baudouin d'Aumeries
Co-Programmation & Développement : Marc-Olivier Méhu
Soutien technique & logistique : Manuel Goepfert

Contact : metmap@orbifly.com




SOURCES & CREDITS :

   NOAA